createdAt,value
2022-09-22T00:01:12.299Z,100273.00
2022-09-22T00:02:45.728Z,100263.00
2022-09-22T00:04:19.368Z,100264.00
2022-09-22T00:06:02.421Z,100262.00
2022-09-22T00:07:37.689Z,100268.00
2022-09-22T00:09:13.940Z,100260.00
2022-09-22T00:10:46.245Z,100253.00
2022-09-22T00:12:19.532Z,100260.00
2022-09-22T00:13:54.978Z,100250.00
2022-09-22T00:15:28.425Z,100261.00
2022-09-22T00:17:03.453Z,100252.00
2022-09-22T00:18:36.119Z,100257.00
2022-09-22T00:20:10.586Z,100255.00
2022-09-22T00:21:44.412Z,100249.00
2022-09-22T00:23:18.579Z,100246.00
2022-09-22T00:24:52.770Z,100254.00
2022-09-22T00:26:26.020Z,100254.00
2022-09-22T00:27:58.236Z,100258.00
2022-09-22T00:29:32.012Z,100255.00
2022-09-22T00:31:07.286Z,100250.00
2022-09-22T00:32:40.987Z,100247.00
2022-09-22T00:34:18.671Z,100256.00
2022-09-22T00:35:59.172Z,100251.00
2022-09-22T00:37:32.600Z,100250.00
2022-09-22T00:39:07.527Z,100256.00
2022-09-22T00:40:41.034Z,100256.00
2022-09-22T00:42:14.377Z,100261.00
2022-09-22T00:43:50.312Z,100250.00
2022-09-22T00:45:24.429Z,100254.00
2022-09-22T00:47:02.809Z,100255.00
2022-09-22T00:48:44.304Z,100256.00
2022-09-22T00:50:22.712Z,100251.00
2022-09-22T00:51:55.068Z,100242.00
2022-09-22T00:53:31.748Z,100241.00
2022-09-22T00:55:14.394Z,100237.00
2022-09-22T00:56:56.589Z,100241.00
2022-09-22T00:58:34.965Z,100233.00
2022-09-22T01:00:12.561Z,100243.00
2022-09-22T01:01:45.096Z,100232.00
2022-09-22T01:03:26.249Z,100241.00
2022-09-22T01:05:03.517Z,100235.00
2022-09-22T01:06:40.768Z,100237.00
2022-09-22T01:08:15.979Z,100232.00
2022-09-22T01:09:48.428Z,100237.00
2022-09-22T01:11:25.146Z,100234.00
2022-09-22T01:13:16.217Z,100226.00
2022-09-22T01:15:15.730Z,100226.00
2022-09-22T01:17:03.014Z,100220.00
2022-09-22T01:18:53.760Z,100218.00
2022-09-22T01:21:23.010Z,100221.00
2022-09-22T01:23:56.012Z,100224.00
2022-09-22T01:26:16.452Z,100224.00
2022-09-22T01:28:21.159Z,100215.00
2022-09-22T01:30:26.613Z,100221.00
2022-09-22T01:32:16.740Z,100217.00
2022-09-22T01:33:59.930Z,100212.00
2022-09-22T01:35:50.222Z,100213.00
2022-09-22T01:37:37.285Z,100210.00
2022-09-22T01:39:20.136Z,100210.00
2022-09-22T01:41:01.949Z,100205.00
2022-09-22T01:42:44.190Z,100206.00
2022-09-22T01:44:26.967Z,100217.00
2022-09-22T01:46:07.950Z,100214.00
2022-09-22T01:47:48.252Z,100210.00
2022-09-22T01:49:25.027Z,100210.00
2022-09-22T01:51:05.861Z,100204.00
2022-09-22T01:52:42.252Z,100207.00
2022-09-22T01:54:21.514Z,100204.00
2022-09-22T01:56:02.420Z,100199.00
2022-09-22T01:57:45.433Z,100198.00
2022-09-22T01:59:25.871Z,100208.00
2022-09-22T02:01:12.173Z,100202.00
2022-09-22T02:02:58.407Z,100203.00
2022-09-22T02:04:37.017Z,100196.00
2022-09-22T02:06:19.507Z,100196.00
2022-09-22T02:07:56.331Z,100202.00
2022-09-22T02:09:34.793Z,100199.00
2022-09-22T02:11:13.870Z,100188.00
2022-09-22T02:12:49.187Z,100200.00
2022-09-22T02:14:22.643Z,100187.00
2022-09-22T02:16:01.509Z,100194.00
2022-09-22T02:17:37.107Z,100182.00
2022-09-22T02:19:17.038Z,100186.00
2022-09-22T02:20:51.506Z,100180.00
2022-09-22T02:22:25.163Z,100186.00
2022-09-22T02:24:01.623Z,100182.00
2022-09-22T02:25:34.156Z,100185.00
2022-09-22T02:27:12.235Z,100177.00
2022-09-22T02:28:46.332Z,100181.00
2022-09-22T02:30:20.459Z,100183.00
2022-09-22T02:31:56.111Z,100186.00
2022-09-22T02:33:38.310Z,100176.00
2022-09-22T02:35:12.721Z,100183.00
2022-09-22T02:36:58.307Z,100177.00
2022-09-22T02:38:41.365Z,100177.00
2022-09-22T02:40:24.549Z,100182.00
2022-09-22T02:42:24.997Z,100175.00
2022-09-22T02:44:06.460Z,100182.00
2022-09-22T02:45:49.859Z,100171.00
2022-09-22T02:47:33.361Z,100180.00
2022-09-22T02:49:14.277Z,100177.00
2022-09-22T02:50:47.489Z,100176.00
2022-09-22T02:52:24.037Z,100166.00
2022-09-22T02:53:58.031Z,100169.00
2022-09-22T02:55:31.659Z,100170.00
2022-09-22T02:57:05.023Z,100177.00
2022-09-22T02:58:38.275Z,100169.00
2022-09-22T03:00:31.216Z,100173.00
2022-09-22T03:02:04.632Z,100163.00
2022-09-22T03:03:38.408Z,100162.00
2022-09-22T03:05:13.628Z,100165.00
2022-09-22T03:06:45.980Z,100158.00
2022-09-22T03:08:19.657Z,100157.00
2022-09-22T03:09:52.887Z,100153.00
2022-09-22T03:11:26.263Z,100161.00
2022-09-22T03:14:52.935Z,100152.00
2022-09-22T03:16:26.194Z,100149.00
2022-09-22T03:17:59.755Z,100156.00
2022-09-22T03:19:33.215Z,100161.00
2022-09-22T03:21:08.372Z,100150.00
2022-09-22T03:22:42.737Z,100152.00
2022-09-22T03:24:15.981Z,100151.00
2022-09-22T03:25:49.239Z,100150.00
2022-09-22T03:27:22.553Z,100147.00
2022-09-22T03:28:56.014Z,100149.00
2022-09-22T03:30:29.735Z,100146.00
2022-09-22T03:32:03.629Z,100144.00
2022-09-22T03:33:37.087Z,100146.00
2022-09-22T03:35:10.905Z,100153.00
2022-09-22T03:36:46.182Z,100139.00
2022-09-22T03:38:19.622Z,100145.00
2022-09-22T03:39:53.166Z,100146.00
2022-09-22T03:41:26.543Z,100140.00
2022-09-22T03:43:00.226Z,100138.00
2022-09-22T03:44:33.437Z,100128.00
2022-09-22T03:46:06.193Z,100143.00
2022-09-22T03:47:39.639Z,100138.00
2022-09-22T03:49:12.903Z,100137.00
2022-09-22T03:50:46.220Z,100141.00
2022-09-22T03:52:20.919Z,100142.00
2022-09-22T03:53:54.560Z,100146.00
2022-09-22T03:55:28.489Z,100138.00
2022-09-22T03:57:01.947Z,100142.00
2022-09-22T03:58:34.948Z,100141.00
2022-09-22T04:00:10.628Z,100137.00
2022-09-22T04:01:47.416Z,100145.00
2022-09-22T04:03:20.736Z,100140.00
2022-09-22T04:04:54.352Z,100137.00
2022-09-22T04:06:27.847Z,100137.00
2022-09-22T04:08:02.908Z,100141.00
2022-09-22T04:09:36.473Z,100135.00
2022-09-22T04:11:09.927Z,100131.00
2022-09-22T04:12:43.374Z,100133.00
2022-09-22T04:14:19.729Z,100138.00
2022-09-22T04:15:52.919Z,100134.00
2022-09-22T04:17:26.157Z,100125.00
2022-09-22T04:18:58.618Z,100131.00
2022-09-22T04:20:31.918Z,100126.00
2022-09-22T04:22:05.912Z,100122.00
2022-09-22T04:23:40.536Z,100128.00
2022-09-22T04:25:13.830Z,100123.00
2022-09-22T04:27:02.146Z,100125.00
2022-09-22T04:28:40.724Z,100121.00
2022-09-22T04:30:14.967Z,100121.00
2022-09-22T04:31:48.283Z,100123.00
2022-09-22T04:33:21.851Z,100119.00
2022-09-22T04:34:55.055Z,100126.00
2022-09-22T04:36:28.359Z,100124.00
2022-09-22T04:38:01.052Z,100120.00
2022-09-22T04:39:36.371Z,100123.00
2022-09-22T04:41:09.695Z,100131.00
2022-09-22T04:42:46.505Z,100120.00
2022-09-22T04:44:19.802Z,100117.00
2022-09-22T04:45:53.428Z,100116.00
2022-09-22T04:47:26.630Z,100119.00
2022-09-22T04:49:00.945Z,100122.00
2022-09-22T04:50:34.268Z,100119.00
2022-09-22T04:52:12.160Z,100120.00
2022-09-22T04:53:45.384Z,100116.00
2022-09-22T04:55:23.084Z,100122.00
2022-09-22T04:56:56.339Z,100121.00
2022-09-22T04:58:29.591Z,100118.00
2022-09-22T05:00:03.924Z,100130.00
2022-09-22T05:01:37.536Z,100124.00
2022-09-22T05:03:12.828Z,100132.00
2022-09-22T05:04:46.062Z,100125.00
2022-09-22T05:06:19.382Z,100124.00
2022-09-22T05:07:55.076Z,100116.00
2022-09-22T05:09:29.134Z,100121.00
2022-09-22T05:11:06.559Z,100120.00
2022-09-22T05:12:41.267Z,100114.00
2022-09-22T05:14:15.231Z,100122.00
2022-09-22T05:15:48.493Z,100114.00
2022-09-22T05:17:21.648Z,100122.00
2022-09-22T05:18:55.766Z,100117.00
2022-09-22T05:20:29.075Z,100117.00
2022-09-22T05:22:02.635Z,100115.00
2022-09-22T05:23:36.790Z,100120.00
2022-09-22T05:25:13.088Z,100121.00
2022-09-22T05:26:48.135Z,100121.00
2022-09-22T05:28:22.834Z,100128.00
2022-09-22T05:29:56.439Z,100124.00
2022-09-22T05:31:30.085Z,100108.00
2022-09-22T05:33:03.287Z,100119.00
2022-09-22T05:34:36.571Z,100122.00
2022-09-22T05:36:09.907Z,100120.00
2022-09-22T05:37:45.626Z,100122.00
2022-09-22T05:39:18.952Z,100124.00
2022-09-22T05:40:52.275Z,100132.00
2022-09-22T05:42:26.862Z,100131.00
2022-09-22T05:44:00.066Z,100131.00
2022-09-22T05:45:33.417Z,100129.00
2022-09-22T05:47:06.833Z,100132.00
2022-09-22T05:48:40.147Z,100134.00
2022-09-22T05:50:16.334Z,100133.00
2022-09-22T05:51:52.103Z,100136.00
2022-09-22T05:53:25.271Z,100131.00
2022-09-22T05:54:58.947Z,100133.00
2022-09-22T05:56:32.795Z,100129.00
2022-09-22T05:58:09.163Z,100130.00
2022-09-22T05:59:42.487Z,100125.00
2022-09-22T06:01:16.241Z,100135.00
2022-09-22T06:02:49.802Z,100137.00
2022-09-22T06:04:22.055Z,100128.00
2022-09-22T06:05:55.710Z,100137.00
2022-09-22T06:07:29.043Z,100130.00
2022-09-22T06:09:02.419Z,100144.00
2022-09-22T06:10:38.657Z,100135.00
2022-09-22T06:12:11.890Z,100139.00
2022-09-22T06:13:50.544Z,100144.00
2022-09-22T06:15:23.622Z,100147.00
2022-09-22T06:16:57.369Z,100138.00
2022-09-22T06:18:31.371Z,100145.00
2022-09-22T06:20:05.489Z,100144.00
2022-09-22T06:21:39.640Z,100146.00
2022-09-22T06:23:15.274Z,100140.00
2022-09-22T06:24:48.727Z,100142.00
2022-09-22T06:26:21.961Z,100138.00
2022-09-22T06:28:07.275Z,100138.00
2022-09-22T06:29:42.260Z,100146.00
2022-09-22T06:31:15.842Z,100134.00
2022-09-22T06:32:55.419Z,100141.00
2022-09-22T06:34:28.731Z,100128.00
2022-09-22T06:36:02.513Z,100137.00
2022-09-22T06:37:39.005Z,100139.00
2022-09-22T06:39:14.196Z,100128.00
2022-09-22T06:40:47.995Z,100130.00
2022-09-22T06:42:21.243Z,100137.00
2022-09-22T06:43:56.100Z,100142.00
2022-09-22T06:45:33.715Z,100131.00
2022-09-22T06:47:08.477Z,100136.00
2022-09-22T06:48:41.655Z,100132.00
2022-09-22T06:50:17.580Z,100136.00
2022-09-22T06:51:52.390Z,100132.00
2022-09-22T06:53:27.538Z,100125.00
2022-09-22T06:55:01.235Z,100137.00
2022-09-22T06:56:42.548Z,100130.00
2022-09-22T06:58:16.671Z,100132.00
2022-09-22T06:59:50.495Z,100119.00
2022-09-22T07:01:28.157Z,100133.00
2022-09-22T07:03:08.709Z,100123.00
2022-09-22T07:04:42.217Z,100128.00
2022-09-22T07:06:20.159Z,100121.00
2022-09-22T07:07:54.037Z,100118.00
2022-09-22T07:09:27.423Z,100121.00
2022-09-22T07:11:03.716Z,100124.00
2022-09-22T07:12:36.950Z,100122.00
2022-09-22T07:14:11.452Z,100125.00
2022-09-22T07:15:44.323Z,100121.00
2022-09-22T07:17:20.212Z,100126.00
2022-09-22T07:18:57.457Z,100118.00
2022-09-22T07:20:35.618Z,100117.00
2022-09-22T07:22:09.099Z,100131.00
2022-09-22T07:23:44.154Z,100124.00
2022-09-22T07:25:17.589Z,100121.00
2022-09-22T07:26:51.100Z,100116.00
2022-09-22T07:28:25.823Z,100113.00
2022-09-22T07:29:59.200Z,100115.00
2022-09-22T07:31:34.650Z,100120.00
2022-09-22T07:33:09.564Z,100112.00
2022-09-22T07:34:43.700Z,100115.00
2022-09-22T07:36:19.886Z,100116.00
2022-09-22T07:37:56.708Z,100107.00
2022-09-22T07:39:30.090Z,100111.00
2022-09-22T07:41:05.139Z,100109.00
2022-09-22T07:42:38.851Z,100109.00
2022-09-22T07:44:31.690Z,100107.00
2022-09-22T07:46:06.224Z,100101.00
2022-09-22T07:47:56.899Z,100100.00
2022-09-22T07:49:32.070Z,100107.00
2022-09-22T07:51:11.756Z,100109.00
2022-09-22T07:52:52.924Z,100107.00
2022-09-22T07:54:28.243Z,100108.00
2022-09-22T07:56:07.212Z,100095.00
2022-09-22T07:57:40.440Z,100101.00
2022-09-22T07:59:16.750Z,100101.00
2022-09-22T08:00:50.716Z,100099.00
2022-09-22T08:02:28.644Z,100096.00
2022-09-22T08:04:04.440Z,100099.00
2022-09-22T08:05:40.700Z,100094.00
2022-09-22T08:07:15.192Z,100098.00
2022-09-22T08:08:53.556Z,100087.00
2022-09-22T08:10:28.351Z,100097.00
2022-09-22T08:12:02.202Z,100097.00
2022-09-22T08:13:37.120Z,100096.00
2022-09-22T08:15:13.052Z,100093.00
2022-09-22T08:16:47.119Z,100092.00
2022-09-22T08:18:20.355Z,100093.00
2022-09-22T08:19:53.531Z,100095.00
2022-09-22T08:21:35.340Z,100099.00
2022-09-22T08:23:10.938Z,100090.00
2022-09-22T08:24:45.530Z,100089.00
2022-09-22T08:26:19.652Z,100094.00
2022-09-22T08:27:53.369Z,100088.00
2022-09-22T08:29:27.834Z,100096.00
2022-09-22T08:31:02.867Z,100090.00
2022-09-22T08:32:36.978Z,100093.00
2022-09-22T08:34:11.364Z,100084.00
2022-09-22T08:35:54.154Z,100081.00
2022-09-22T08:37:28.720Z,100082.00
2022-09-22T08:39:03.908Z,100079.00
2022-09-22T08:40:38.994Z,100081.00
2022-09-22T08:42:20.878Z,100085.00
2022-09-22T08:43:57.374Z,100081.00
2022-09-22T08:45:35.648Z,100087.00
2022-09-22T08:47:39.326Z,100087.00
2022-09-22T08:49:41.698Z,100091.00
2022-09-22T08:51:39.200Z,100082.00
2022-09-22T08:53:19.568Z,100088.00
2022-09-22T08:54:55.015Z,100081.00
2022-09-22T08:56:38.459Z,100079.00
2022-09-22T08:58:29.506Z,100075.00
2022-09-22T09:00:07.711Z,100075.00
2022-09-22T09:02:15.339Z,100084.00
2022-09-22T09:04:11.158Z,100080.00
2022-09-22T09:06:03.996Z,100081.00
2022-09-22T09:07:49.346Z,100081.00
2022-09-22T09:09:47.464Z,100087.00
2022-09-22T09:11:41.172Z,100078.00
2022-09-22T09:13:46.173Z,100086.00
2022-09-22T09:15:43.726Z,100084.00
2022-09-22T09:17:24.069Z,100079.00
2022-09-22T09:19:07.214Z,100082.00
2022-09-22T09:20:46.641Z,100083.00
2022-09-22T09:22:25.181Z,100079.00
2022-09-22T09:26:03.954Z,100077.00
2022-09-22T09:27:43.397Z,100070.00
2022-09-22T09:29:28.327Z,100075.00
2022-09-22T09:31:12.315Z,100080.00
2022-09-22T09:32:51.498Z,100074.00
2022-09-22T09:34:29.802Z,100076.00
2022-09-22T09:36:03.746Z,100075.00
2022-09-22T09:37:37.514Z,100075.00
2022-09-22T09:39:15.329Z,100077.00
2022-09-22T09:40:56.696Z,100077.00
2022-09-22T09:42:36.162Z,100076.00
2022-09-22T09:44:20.348Z,100076.00
2022-09-22T09:46:13.808Z,100078.00
2022-09-22T09:48:12.192Z,100079.00
2022-09-22T09:49:45.475Z,100076.00
2022-09-22T09:51:19.832Z,100081.00
2022-09-22T09:52:54.223Z,100069.00
2022-09-22T09:54:28.683Z,100070.00
2022-09-22T09:56:02.752Z,100065.00
2022-09-22T09:58:07.323Z,100077.00
2022-09-22T10:00:00.887Z,100069.00
2022-09-22T10:01:33.397Z,100076.00
2022-09-22T10:03:17.377Z,100070.00
2022-09-22T10:04:54.262Z,100058.00
2022-09-22T10:06:27.589Z,100050.00
2022-09-22T10:08:05.459Z,100047.00
2022-09-22T10:09:40.874Z,100045.00
2022-09-22T10:11:15.065Z,100049.00
2022-09-22T10:12:50.128Z,100047.00
2022-09-22T10:14:27.606Z,100053.00
2022-09-22T10:16:21.442Z,100043.00
2022-09-22T10:17:54.859Z,100037.00
2022-09-22T10:19:31.202Z,100039.00
2022-09-22T10:21:14.477Z,100045.00
2022-09-22T10:22:47.999Z,100044.00
2022-09-22T10:24:32.923Z,100038.00
2022-09-22T10:26:23.017Z,100038.00
2022-09-22T10:28:09.301Z,100029.00
2022-09-22T10:29:42.526Z,100036.00
2022-09-22T10:31:25.018Z,100038.00
2022-09-22T10:33:17.238Z,100027.00
2022-09-22T10:34:57.183Z,100027.00
2022-09-22T10:36:33.798Z,100037.00
2022-09-22T10:38:16.626Z,100030.00
2022-09-22T10:39:52.519Z,100028.00
2022-09-22T10:41:33.989Z,100024.00
2022-09-22T10:43:35.534Z,100030.00
2022-09-22T10:45:15.221Z,100031.00
2022-09-22T10:47:29.623Z,100021.00
2022-09-22T10:49:13.684Z,100027.00
2022-09-22T10:50:59.893Z,100019.00
2022-09-22T10:52:42.945Z,100018.00
2022-09-22T10:54:43.226Z,100023.00
2022-09-22T10:56:30.614Z,100028.00
2022-09-22T10:58:45.315Z,100023.00
2022-09-22T11:00:22.277Z,100023.00
2022-09-22T11:02:35.352Z,100025.00
2022-09-22T11:04:38.925Z,100027.00
2022-09-22T11:07:04.199Z,100018.00
2022-09-22T11:09:03.910Z,100025.00
2022-09-22T11:11:14.296Z,100027.00
2022-09-22T11:13:03.746Z,100022.00
2022-09-22T11:15:00.791Z,100021.00
2022-09-22T11:16:54.883Z,100020.00
2022-09-22T11:18:52.744Z,100019.00
2022-09-22T11:20:36.248Z,100022.00
2022-09-22T11:22:33.424Z,100017.00
2022-09-22T11:24:32.007Z,100018.00
2022-09-22T11:26:30.162Z,100012.00
2022-09-22T11:28:23.809Z,100011.00
2022-09-22T11:30:11.931Z,100007.00
2022-09-22T11:32:04.099Z,100010.00
2022-09-22T11:34:12.980Z,100002.00
2022-09-22T11:36:04.486Z,100009.00
2022-09-22T11:37:58.631Z,99997.00
2022-09-22T11:39:49.019Z,99993.00
2022-09-22T11:41:32.263Z,99987.00
2022-09-22T11:43:30.001Z,99999.00
2022-09-22T11:45:20.523Z,99999.00
2022-09-22T11:47:17.028Z,99984.00
2022-09-22T11:49:11.235Z,99989.00
2022-09-22T11:51:05.392Z,99986.00
2022-09-22T11:53:00.592Z,99993.00
2022-09-22T11:55:12.164Z,99982.00
2022-09-22T11:56:50.208Z,99980.00
2022-09-22T11:58:29.544Z,99972.00
2022-09-22T12:00:15.310Z,99987.00
2022-09-22T12:01:50.889Z,99979.00
2022-09-22T12:03:31.330Z,99983.00
2022-09-22T12:05:12.647Z,99969.00
2022-09-22T12:06:51.738Z,99975.00
2022-09-22T12:08:34.672Z,99983.00
2022-09-22T12:10:17.627Z,99981.00
2022-09-22T12:11:53.196Z,99975.00
2022-09-22T12:13:30.854Z,99978.00
2022-09-22T12:15:21.608Z,99972.00
2022-09-22T12:17:06.000Z,99968.00
2022-09-22T12:18:47.039Z,99966.00
2022-09-22T12:20:43.827Z,99965.00
2022-09-22T12:22:26.411Z,99964.00
2022-09-22T12:24:04.382Z,99958.00
2022-09-22T12:25:50.524Z,99952.00
2022-09-22T12:27:26.063Z,99957.00
2022-09-22T12:29:01.922Z,99959.00
2022-09-22T12:30:36.698Z,99946.00
2022-09-22T12:32:24.889Z,99955.00
2022-09-22T12:33:58.342Z,99956.00
2022-09-22T12:35:33.163Z,99948.00
2022-09-22T12:37:14.033Z,99945.00
2022-09-22T12:38:47.854Z,99941.00
2022-09-22T12:40:30.575Z,99942.00
2022-09-22T12:42:08.003Z,99942.00
2022-09-22T12:43:41.894Z,99934.00
2022-09-22T12:45:27.489Z,99937.00
2022-09-22T12:47:07.475Z,99931.00
2022-09-22T12:48:41.136Z,99930.00
2022-09-22T12:50:37.762Z,99928.00
2022-09-22T12:52:54.402Z,99917.00
2022-09-22T12:54:39.318Z,99925.00
2022-09-22T12:56:46.334Z,99924.00
2022-09-22T12:58:49.687Z,99914.00
2022-09-22T13:00:35.049Z,99913.00
2022-09-22T13:02:31.671Z,99912.00
2022-09-22T13:04:19.131Z,99919.00
2022-09-22T13:05:54.155Z,99916.00
2022-09-22T13:07:37.222Z,99912.00
2022-09-22T13:09:22.582Z,99919.00
2022-09-22T13:11:02.186Z,99915.00
2022-09-22T13:12:35.729Z,99908.00
2022-09-22T13:14:59.469Z,99920.00
2022-09-22T13:16:37.422Z,99924.00
2022-09-22T13:18:31.919Z,99910.00
2022-09-22T13:20:16.657Z,99912.00
2022-09-22T13:21:50.271Z,99907.00
2022-09-22T13:23:22.875Z,99909.00
2022-09-22T13:24:56.059Z,99918.00
2022-09-22T13:26:32.656Z,99916.00
2022-09-22T13:28:15.859Z,99916.00
2022-09-22T13:29:59.106Z,99916.00
2022-09-22T13:31:40.155Z,99907.00
2022-09-22T13:33:23.303Z,99904.00
2022-09-22T13:34:58.266Z,99909.00
2022-09-22T13:36:32.184Z,99900.00
2022-09-22T13:38:07.175Z,99906.00
2022-09-22T13:39:47.363Z,99894.00
2022-09-22T13:41:25.745Z,99889.00
2022-09-22T13:43:05.993Z,99892.00
2022-09-22T13:44:42.748Z,99895.00
2022-09-22T13:46:25.028Z,99886.00
2022-09-22T13:48:08.821Z,99895.00
2022-09-22T13:49:47.466Z,99893.00
2022-09-22T13:51:24.847Z,99894.00
2022-09-22T13:52:58.579Z,99889.00
2022-09-22T13:54:36.262Z,99891.00
2022-09-22T13:56:21.569Z,99882.00
2022-09-22T13:57:59.333Z,99888.00
2022-09-22T13:59:42.179Z,99884.00
2022-09-22T14:01:21.808Z,99883.00
2022-09-22T14:02:58.874Z,99882.00
2022-09-22T14:04:32.550Z,99876.00
2022-09-22T14:06:12.791Z,99878.00
2022-09-22T14:08:07.727Z,99883.00
2022-09-22T14:09:43.314Z,99879.00
2022-09-22T14:11:20.567Z,99875.00
2022-09-22T14:12:54.130Z,99878.00
2022-09-22T14:14:29.044Z,99878.00
2022-09-22T14:16:14.817Z,99881.00
2022-09-22T14:17:48.167Z,99877.00
2022-09-22T14:19:27.870Z,99876.00
2022-09-22T14:21:01.479Z,99876.00
2022-09-22T14:22:42.887Z,99879.00
2022-09-22T14:24:17.909Z,99878.00
2022-09-22T14:25:51.894Z,99879.00
2022-09-22T14:27:32.506Z,99878.00
2022-09-22T14:29:16.079Z,99884.00
2022-09-22T14:30:50.159Z,99882.00
2022-09-22T14:32:33.255Z,99869.00
2022-09-22T14:34:11.783Z,99879.00
2022-09-22T14:35:45.307Z,99863.00
2022-09-22T14:37:27.439Z,99868.00
2022-09-22T14:39:10.269Z,99863.00
2022-09-22T14:40:54.928Z,99863.00
2022-09-22T14:42:30.730Z,99863.00
2022-09-22T14:44:40.213Z,99854.00
2022-09-22T14:46:25.568Z,99855.00
2022-09-22T14:48:18.883Z,99844.00
2022-09-22T14:50:09.385Z,99850.00
2022-09-22T14:51:49.165Z,99842.00
2022-09-22T14:53:27.075Z,99837.00
2022-09-22T14:55:10.146Z,99826.00
2022-09-22T14:56:45.539Z,99836.00
2022-09-22T14:58:23.978Z,99824.00
2022-09-22T15:00:18.626Z,99831.00
2022-09-22T15:02:10.529Z,99825.00
2022-09-22T15:03:52.690Z,99826.00
2022-09-22T15:05:30.474Z,99825.00
2022-09-22T15:07:04.592Z,99824.00
2022-09-22T15:08:39.109Z,99821.00
2022-09-22T15:10:24.772Z,99826.00
2022-09-22T15:12:02.764Z,99823.00
2022-09-22T15:13:42.180Z,99823.00
2022-09-22T15:15:21.701Z,99823.00
2022-09-22T15:17:15.475Z,99820.00
2022-09-22T15:18:47.767Z,99822.00
2022-09-22T15:20:21.230Z,99817.00
2022-09-22T15:21:56.346Z,99820.00
2022-09-22T15:23:37.423Z,99811.00
2022-09-22T15:25:16.031Z,99817.00
2022-09-22T15:26:49.330Z,99819.00
2022-09-22T15:28:26.902Z,99813.00
2022-09-22T15:29:59.463Z,99806.00
2022-09-22T15:31:32.900Z,99795.00
2022-09-22T15:33:06.868Z,99811.00
2022-09-22T15:34:42.885Z,99818.00
2022-09-22T15:36:20.109Z,99811.00
2022-09-22T15:37:53.453Z,99805.00
2022-09-22T15:39:26.920Z,99819.00
2022-09-22T15:41:01.103Z,99818.00
2022-09-22T15:42:35.115Z,99817.00
2022-09-22T15:44:11.211Z,99812.00
2022-09-22T15:45:47.861Z,99802.00
2022-09-22T15:47:21.383Z,99806.00
2022-09-22T15:48:59.430Z,99806.00
2022-09-22T15:50:33.236Z,99806.00
2022-09-22T15:52:06.763Z,99805.00
2022-09-22T15:53:46.983Z,99811.00
2022-09-22T15:55:23.481Z,99812.00
2022-09-22T15:57:00.642Z,99808.00
2022-09-22T15:58:39.763Z,99806.00
2022-09-22T16:00:26.153Z,99809.00
2022-09-22T16:02:00.481Z,99806.00
2022-09-22T16:03:41.248Z,99804.00
2022-09-22T16:05:16.950Z,99802.00
2022-09-22T16:06:57.458Z,99796.00
2022-09-22T16:08:38.818Z,99796.00
2022-09-22T16:10:15.903Z,99791.00
2022-09-22T16:11:49.579Z,99799.00
2022-09-22T16:13:22.943Z,99790.00
2022-09-22T16:14:57.014Z,99788.00
2022-09-22T16:16:33.426Z,99790.00
2022-09-22T16:18:08.490Z,99797.00
2022-09-22T16:19:41.958Z,99780.00
2022-09-22T16:21:23.131Z,99789.00
2022-09-22T16:22:55.511Z,99784.00
2022-09-22T16:24:28.944Z,99781.00
2022-09-22T16:26:02.191Z,99790.00
2022-09-22T16:27:36.134Z,99786.00
2022-09-22T16:29:10.061Z,99786.00
2022-09-22T16:30:43.783Z,99784.00
2022-09-22T16:32:21.139Z,99785.00
2022-09-22T16:33:56.328Z,99785.00
2022-09-22T16:35:33.443Z,99782.00
2022-09-22T16:37:12.349Z,99779.00
2022-09-22T16:38:55.352Z,99784.00
2022-09-22T16:40:30.205Z,99782.00
2022-09-22T16:42:09.845Z,99783.00
2022-09-22T16:43:48.090Z,99783.00
2022-09-22T16:45:41.528Z,99784.00
2022-09-22T16:47:14.124Z,99782.00
2022-09-22T16:48:50.938Z,99771.00
2022-09-22T16:50:24.448Z,99783.00
2022-09-22T16:51:57.952Z,99778.00
2022-09-22T16:53:31.305Z,99783.00
2022-09-22T16:55:05.111Z,99780.00
2022-09-22T16:56:38.992Z,99786.00
2022-09-22T16:58:13.483Z,99788.00
2022-09-22T16:59:46.682Z,99773.00
2022-09-22T17:01:20.337Z,99778.00
2022-09-22T17:02:54.904Z,99787.00
2022-09-22T17:04:30.127Z,99788.00
2022-09-22T17:06:04.408Z,99788.00
2022-09-22T17:07:37.781Z,99789.00
2022-09-22T17:09:12.997Z,99786.00
2022-09-22T17:10:48.539Z,99793.00
2022-09-22T17:12:25.500Z,99791.00
2022-09-22T17:14:00.818Z,99779.00
2022-09-22T17:15:36.134Z,99791.00
2022-09-22T17:17:10.638Z,99783.00
2022-09-22T17:18:44.059Z,99781.00
2022-09-22T17:20:18.664Z,99788.00
2022-09-22T17:21:55.120Z,99794.00
2022-09-22T17:23:28.413Z,99795.00
2022-09-22T17:25:02.020Z,99792.00
2022-09-22T17:26:38.083Z,99794.00
2022-09-22T17:28:11.798Z,99792.00
2022-09-22T17:29:45.307Z,99802.00
2022-09-22T17:31:19.282Z,99802.00
2022-09-22T17:32:53.429Z,99795.00
2022-09-22T17:34:29.206Z,99796.00
2022-09-22T17:36:07.468Z,99792.00
2022-09-22T17:37:40.743Z,99790.00
2022-09-22T17:39:14.132Z,99798.00
2022-09-22T17:40:48.093Z,99788.00
2022-09-22T17:42:21.987Z,99794.00
2022-09-22T17:43:57.446Z,99807.00
2022-09-22T17:45:30.827Z,99795.00
2022-09-22T17:47:22.635Z,99804.00
2022-09-22T17:49:13.594Z,99809.00
2022-09-22T17:51:08.534Z,99810.00
2022-09-22T17:53:00.813Z,99805.00
2022-09-22T17:54:53.830Z,99797.00
2022-09-22T17:56:29.456Z,99801.00
2022-09-22T17:58:04.676Z,99795.00
2022-09-22T17:59:39.256Z,99803.00
2022-09-22T18:01:12.615Z,99805.00
2022-09-22T18:02:45.969Z,99809.00
2022-09-22T18:04:19.496Z,99803.00
2022-09-22T18:05:53.769Z,99817.00
2022-09-22T18:07:28.206Z,99810.00
2022-09-22T18:09:03.079Z,99805.00
2022-09-22T18:10:36.276Z,99802.00
2022-09-22T18:12:13.886Z,99809.00
2022-09-22T18:13:47.671Z,99801.00
2022-09-22T18:15:21.033Z,99808.00
2022-09-22T18:16:54.468Z,99809.00
2022-09-22T18:18:30.163Z,99808.00
2022-09-22T18:20:03.873Z,99810.00
2022-09-22T18:21:39.847Z,99813.00
2022-09-22T18:23:13.827Z,99807.00
2022-09-22T18:24:50.448Z,99799.00
2022-09-22T18:26:23.835Z,99804.00
2022-09-22T18:27:57.714Z,99812.00
2022-09-22T18:29:31.864Z,99810.00
2022-09-22T18:31:05.281Z,99813.00
2022-09-22T18:32:40.057Z,99819.00
2022-09-22T18:34:14.130Z,99811.00
2022-09-22T18:35:49.947Z,99811.00
2022-09-22T18:37:26.379Z,99809.00
2022-09-22T18:38:59.915Z,99812.00
2022-09-22T18:40:34.741Z,99820.00
2022-09-22T18:42:11.035Z,99809.00
2022-09-22T18:43:45.340Z,99817.00
2022-09-22T18:45:19.339Z,99820.00
2022-09-22T18:46:53.811Z,99811.00
2022-09-22T18:48:27.459Z,99817.00
2022-09-22T18:50:00.931Z,99805.00
2022-09-22T18:51:35.604Z,99820.00
2022-09-22T18:53:08.829Z,99811.00
2022-09-22T18:54:42.880Z,99819.00
2022-09-22T18:56:19.039Z,99812.00
2022-09-22T18:57:52.527Z,99809.00
2022-09-22T18:59:28.320Z,99813.00
2022-09-22T19:01:01.696Z,99820.00
2022-09-22T19:02:35.093Z,99807.00
2022-09-22T19:04:14.320Z,99811.00
2022-09-22T19:05:48.006Z,99804.00
2022-09-22T19:07:42.437Z,99810.00
2022-09-22T19:09:16.539Z,99809.00